Mountain Home, North Carolina
Current Conditions -  °F | °C
As of 6:54 AM on Sunday 21 Dec 2014 (Local Time) from KAVL Reporting Station
Overcast Overcast  
Wind Chill: 39°   Ceiling: 1200
Heat Index: 39°   Visibility: 7mi
Dew Point: 37°   Wind: 3mph
Humidity: 93%   Direction: 170°S
Pressure: 30.21"   Gusts: NA
Location:  35.37°N, 82.49°W
Report Text: KAVL 211154Z 17003KT 7SM BKN012 OVC017 04/03 A3021 RMK AO2 SLP234 T00390028 10039 20033 53005
Loading
Personal Weather Stations






























Interactive Weather Map New forecast layout! Learn more

10-Day Weather Forecast

Advertisements
Track Severe Weather on mobile